sensor_id;sensor_type;location;lat;lon;timestamp;temperature;humidity
61323;DHT22;47203;48.428;11.974;2022-12-29T00:01:52;8.80;55.00
61323;DHT22;47203;48.428;11.974;2022-12-29T00:08:10;8.80;55.00
61323;DHT22;47203;48.428;11.974;2022-12-29T00:10:18;8.80;54.90
61323;DHT22;47203;48.428;11.974;2022-12-29T00:17:18;8.90;54.90
61323;DHT22;47203;48.428;11.974;2022-12-29T00:21:45;8.90;54.80
61323;DHT22;47203;48.428;11.974;2022-12-29T00:24:03;9.00;54.90
61323;DHT22;47203;48.428;11.974;2022-12-29T00:26:26;8.80;54.70
61323;DHT22;47203;48.428;11.974;2022-12-29T00:31:08;9.00;54.80
61323;DHT22;47203;48.428;11.974;2022-12-29T00:33:31;8.90;54.60
61323;DHT22;47203;48.428;11.974;2022-12-29T00:35:55;8.90;54.60
61323;DHT22;47203;48.428;11.974;2022-12-29T00:38:06;8.90;54.50
61323;DHT22;47203;48.428;11.974;2022-12-29T00:42:47;8.90;54.60
61323;DHT22;47203;48.428;11.974;2022-12-29T00:45:05;8.90;55.10
61323;DHT22;47203;48.428;11.974;2022-12-29T00:47:12;9.00;54.70
61323;DHT22;47203;48.428;11.974;2022-12-29T00:49:19;9.00;54.70
61323;DHT22;47203;48.428;11.974;2022-12-29T00:53:41;9.00;54.70
61323;DHT22;47203;48.428;11.974;2022-12-29T00:55:47;8.90;54.60
61323;DHT22;47203;48.428;11.974;2022-12-29T00:57:55;9.00;54.70
61323;DHT22;47203;48.428;11.974;2022-12-29T01:02:08;9.00;54.70
61323;DHT22;47203;48.428;11.974;2022-12-29T01:04:15;9.00;54.80
61323;DHT22;47203;48.428;11.974;2022-12-29T01:06:21;9.00;54.70
61323;DHT22;47203;48.428;11.974;2022-12-29T01:12:36;9.00;54.70
61323;DHT22;47203;48.428;11.974;2022-12-29T01:14:50;9.00;54.60
61323;DHT22;47203;48.428;11.974;2022-12-29T01:19:01;9.00;54.50
61323;DHT22;47203;48.428;11.974;2022-12-29T01:21:08;9.00;54.60
61323;DHT22;47203;48.428;11.974;2022-12-29T01:23:16;9.00;54.50
61323;DHT22;47203;48.428;11.974;2022-12-29T01:25:21;9.00;55.00
61323;DHT22;47203;48.428;11.974;2022-12-29T01:27:27;9.00;54.50
61323;DHT22;47203;48.428;11.974;2022-12-29T01:29:33;9.00;54.60
61323;DHT22;47203;48.428;11.974;2022-12-29T01:31:42;9.00;54.50
61323;DHT22;47203;48.428;11.974;2022-12-29T01:33:47;8.80;54.40
61323;DHT22;47203;48.428;11.974;2022-12-29T01:35:53;9.00;55.10
61323;DHT22;47203;48.428;11.974;2022-12-29T01:37:58;9.00;54.60
61323;DHT22;47203;48.428;11.974;2022-12-29T01:40:05;9.00;54.60
61323;DHT22;47203;48.428;11.974;2022-12-29T01:42:15;9.00;55.10
61323;DHT22;47203;48.428;11.974;2022-12-29T01:44:39;9.00;54.50
61323;DHT22;47203;48.428;11.974;2022-12-29T01:46:56;9.00;54.50
61323;DHT22;47203;48.428;11.974;2022-12-29T01:51:16;8.90;54.40
61323;DHT22;47203;48.428;11.974;2022-12-29T01:53:26;8.90;55.00
61323;DHT22;47203;48.428;11.974;2022-12-29T01:55:36;8.90;54.50
61323;DHT22;47203;48.428;11.974;2022-12-29T01:57:48;8.90;54.40
61323;DHT22;47203;48.428;11.974;2022-12-29T01:59:58;8.90;54.50
61323;DHT22;47203;48.428;11.974;2022-12-29T02:02:16;8.90;54.50
61323;DHT22;47203;48.428;11.974;2022-12-29T02:04:23;8.90;54.90
61323;DHT22;47203;48.428;11.974;2022-12-29T02:06:34;8.80;55.10
61323;DHT22;47203;48.428;11.974;2022-12-29T02:08:47;8.80;54.90
61323;DHT22;47203;48.428;11.974;2022-12-29T02:10:58;8.80;54.40
61323;DHT22;47203;48.428;11.974;2022-12-29T02:13:08;8.70;54.90
61323;DHT22;47203;48.428;11.974;2022-12-29T02:15:14;8.70;54.30
61323;DHT22;47203;48.428;11.974;2022-12-29T02:17:32;8.70;54.40
61323;DHT22;47203;48.428;11.974;2022-12-29T02:20:11;8.70;54.50
61323;DHT22;47203;48.428;11.974;2022-12-29T02:22:46;8.60;54.90
61323;DHT22;47203;48.428;11.974;2022-12-29T02:25:20;8.60;54.40
61323;DHT22;47203;48.428;11.974;2022-12-29T02:27:55;8.60;54.50
61323;DHT22;47203;48.428;11.974;2022-12-29T02:30:46;8.60;54.60
61323;DHT22;47203;48.428;11.974;2022-12-29T02:33:11;8.60;55.00
61323;DHT22;47203;48.428;11.974;2022-12-29T02:35:31;8.60;54.60
61323;DHT22;47203;48.428;11.974;2022-12-29T02:37:43;8.60;55.10
61323;DHT22;47203;48.428;11.974;2022-12-29T02:40:01;8.60;54.70
61323;DHT22;47203;48.428;11.974;2022-12-29T02:42:22;8.50;54.50
61323;DHT22;47203;48.428;11.974;2022-12-29T02:44:37;8.60;54.60
61323;DHT22;47203;48.428;11.974;2022-12-29T02:47:00;8.60;54.50
61323;DHT22;47203;48.428;11.974;2022-12-29T02:49:18;8.70;54.70
61323;DHT22;47203;48.428;11.974;2022-12-29T02:51:27;8.60;54.40
61323;DHT22;47203;48.428;11.974;2022-12-29T02:53:38;8.70;54.50
61323;DHT22;47203;48.428;11.974;2022-12-29T02:55:57;8.70;54.60
61323;DHT22;47203;48.428;11.974;2022-12-29T02:58:20;8.70;54.50
61323;DHT22;47203;48.428;11.974;2022-12-29T03:00:27;8.80;54.60
61323;DHT22;47203;48.428;11.974;2022-12-29T03:05:38;8.70;55.00
61323;DHT22;47203;48.428;11.974;2022-12-29T03:08:06;8.80;55.00
61323;DHT22;47203;48.428;11.974;2022-12-29T03:10:30;8.80;54.50
61323;DHT22;47203;48.428;11.974;2022-12-29T03:12:46;8.80;54.90
61323;DHT22;47203;48.428;11.974;2022-12-29T03:15:15;8.80;54.90
61323;DHT22;47203;48.428;11.974;2022-12-29T03:17:48;8.70;55.00
61323;DHT22;47203;48.428;11.974;2022-12-29T03:20:03;8.80;54.60
61323;DHT22;47203;48.428;11.974;2022-12-29T03:22:18;8.70;54.50
61323;DHT22;47203;48.428;11.974;2022-12-29T03:24:46;8.80;55.20
61323;DHT22;47203;48.428;11.974;2022-12-29T03:26:57;8.70;54.60
61323;DHT22;47203;48.428;11.974;2022-12-29T03:29:11;8.70;54.70
61323;DHT22;47203;48.428;11.974;2022-12-29T03:31:23;8.70;54.60
61323;DHT22;47203;48.428;11.974;2022-12-29T03:33:32;8.80;54.70
61323;DHT22;47203;48.428;11.974;2022-12-29T03:35:41;8.70;54.60
61323;DHT22;47203;48.428;11.974;2022-12-29T03:37:52;8.70;54.60
61323;DHT22;47203;48.428;11.974;2022-12-29T03:40:05;8.80;54.80
61323;DHT22;47203;48.428;11.974;2022-12-29T03:42:15;8.70;54.80
61323;DHT22;47203;48.428;11.974;2022-12-29T03:44:31;8.70;54.70
61323;DHT22;47203;48.428;11.974;2022-12-29T03:46:39;8.70;54.70
61323;DHT22;47203;48.428;11.974;2022-12-29T03:48:47;8.70;54.70
61323;DHT22;47203;48.428;11.974;2022-12-29T03:52:58;8.80;54.80
61323;DHT22;47203;48.428;11.974;2022-12-29T03:55:06;8.60;54.70
61323;DHT22;47203;48.428;11.974;2022-12-29T03:57:13;8.70;54.60
61323;DHT22;47203;48.428;11.974;2022-12-29T03:59:27;8.90;54.70
61323;DHT22;47203;48.428;11.974;2022-12-29T04:01:33;8.90;54.70
61323;DHT22;47203;48.428;11.974;2022-12-29T04:05:49;8.90;54.60
61323;DHT22;47203;48.428;11.974;2022-12-29T04:07:55;8.90;54.60
61323;DHT22;47203;48.428;11.974;2022-12-29T04:10:02;9.00;54.70
61323;DHT22;47203;48.428;11.974;2022-12-29T04:12:09;8.80;54.40
61323;DHT22;47203;48.428;11.974;2022-12-29T04:14:16;9.00;54.40
61323;DHT22;47203;48.428;11.974;2022-12-29T04:18:27;9.00;54.20
61323;DHT22;47203;48.428;11.974;2022-12-29T04:23:00;9.00;54.30
61323;DHT22;47203;48.428;11.974;2022-12-29T04:25:07;9.00;54.10
61323;DHT22;47203;48.428;11.974;2022-12-29T04:27:13;9.10;54.20
61323;DHT22;47203;48.428;11.974;2022-12-29T04:29:43;9.20;54.30
61323;DHT22;47203;48.428;11.974;2022-12-29T04:32:06;9.20;54.30
61323;DHT22;47203;48.428;11.974;2022-12-29T04:34:17;9.10;54.70
61323;DHT22;47203;48.428;11.974;2022-12-29T04:36:23;9.10;54.00
61323;DHT22;47203;48.428;11.974;2022-12-29T04:38:34;9.10;53.90
61323;DHT22;47203;48.428;11.974;2022-12-29T04:40:41;9.20;54.00
61323;DHT22;47203;48.428;11.974;2022-12-29T04:42:47;9.20;54.00
61323;DHT22;47203;48.428;11.974;2022-12-29T04:44:55;9.10;54.00
61323;DHT22;47203;48.428;11.974;2022-12-29T04:47:11;9.20;54.10
61323;DHT22;47203;48.428;11.974;2022-12-29T04:49:38;9.20;54.20
61323;DHT22;47203;48.428;11.974;2022-12-29T04:52:15;9.20;54.10
61323;DHT22;47203;48.428;11.974;2022-12-29T04:54:23;9.20;54.70
61323;DHT22;47203;48.428;11.974;2022-12-29T04:56:49;9.30;54.00
61323;DHT22;47203;48.428;11.974;2022-12-29T04:58:54;9.30;54.00
61323;DHT22;47203;48.428;11.974;2022-12-29T05:01:01;9.30;53.90
61323;DHT22;47203;48.428;11.974;2022-12-29T05:03:07;9.30;53.90
61323;DHT22;47203;48.428;11.974;2022-12-29T05:05:15;9.30;54.50
61323;DHT22;47203;48.428;11.974;2022-12-29T05:07:24;9.30;53.90
61323;DHT22;47203;48.428;11.974;2022-12-29T05:11:39;9.30;53.70
61323;DHT22;47203;48.428;11.974;2022-12-29T05:13:45;9.40;53.80
61323;DHT22;47203;48.428;11.974;2022-12-29T05:15:52;9.40;53.70
61323;DHT22;47203;48.428;11.974;2022-12-29T05:17:59;9.40;53.60
61323;DHT22;47203;48.428;11.974;2022-12-29T05:20:06;9.60;53.90
61323;DHT22;47203;48.428;11.974;2022-12-29T05:22:12;9.50;54.30
61323;DHT22;47203;48.428;11.974;2022-12-29T05:24:20;9.50;53.50
61323;DHT22;47203;48.428;11.974;2022-12-29T05:26:33;9.60;53.60
61323;DHT22;47203;48.428;11.974;2022-12-29T05:28:45;9.60;53.40
61323;DHT22;47203;48.428;11.974;2022-12-29T05:30:54;9.70;53.40
61323;DHT22;47203;48.428;11.974;2022-12-29T05:32:59;9.70;53.40
61323;DHT22;47203;48.428;11.974;2022-12-29T05:35:06;9.70;53.20
61323;DHT22;47203;48.428;11.974;2022-12-29T05:37:12;9.70;53.80
61323;DHT22;47203;48.428;11.974;2022-12-29T05:39:19;9.80;53.40
61323;DHT22;47203;48.428;11.974;2022-12-29T05:41:29;9.80;53.20
61323;DHT22;47203;48.428;11.974;2022-12-29T05:43:52;9.80;53.30
61323;DHT22;47203;48.428;11.974;2022-12-29T05:46:17;9.80;53.10
61323;DHT22;47203;48.428;11.974;2022-12-29T05:48:41;9.90;53.20
61323;DHT22;47203;48.428;11.974;2022-12-29T05:50:55;9.90;53.20
61323;DHT22;47203;48.428;11.974;2022-12-29T05:53:11;9.90;53.20
61323;DHT22;47203;48.428;11.974;2022-12-29T05:55:19;9.90;53.80
61323;DHT22;47203;48.428;11.974;2022-12-29T05:57:27;9.90;53.10
61323;DHT22;47203;48.428;11.974;2022-12-29T05:59:45;10.00;53.30
61323;DHT22;47203;48.428;11.974;2022-12-29T06:01:50;10.00;53.60
61323;DHT22;47203;48.428;11.974;2022-12-29T06:03:56;10.00;52.90
61323;DHT22;47203;48.428;11.974;2022-12-29T06:06:03;9.90;52.80
61323;DHT22;47203;48.428;11.974;2022-12-29T06:10:15;10.00;53.00
61323;DHT22;47203;48.428;11.974;2022-12-29T06:12:35;10.00;52.90
61323;DHT22;47203;48.428;11.974;2022-12-29T06:14:43;10.00;52.70
61323;DHT22;47203;48.428;11.974;2022-12-29T06:16:49;10.00;52.70
61323;DHT22;47203;48.428;11.974;2022-12-29T06:18:56;10.00;52.80
61323;DHT22;47203;48.428;11.974;2022-12-29T06:21:02;10.00;53.40
61323;DHT22;47203;48.428;11.974;2022-12-29T06:23:08;10.10;53.40
61323;DHT22;47203;48.428;11.974;2022-12-29T06:25:14;10.10;53.40
61323;DHT22;47203;48.428;11.974;2022-12-29T06:29:27;10.20;53.00
61323;DHT22;47203;48.428;11.974;2022-12-29T06:31:36;10.10;52.50
61323;DHT22;47203;48.428;11.974;2022-12-29T06:33:41;10.10;52.50
61323;DHT22;47203;48.428;11.974;2022-12-29T06:37:56;10.10;52.60
61323;DHT22;47203;48.428;11.974;2022-12-29T06:40:02;10.20;52.60
61323;DHT22;47203;48.428;11.974;2022-12-29T06:42:24;10.20;52.40
61323;DHT22;47203;48.428;11.974;2022-12-29T06:44:47;10.20;52.30
61323;DHT22;47203;48.428;11.974;2022-12-29T06:46:55;10.20;53.00
61323;DHT22;47203;48.428;11.974;2022-12-29T06:49:01;10.20;52.20
61323;DHT22;47203;48.428;11.974;2022-12-29T06:51:06;10.30;52.20
61323;DHT22;47203;48.428;11.974;2022-12-29T06:53:12;10.30;52.10
61323;DHT22;47203;48.428;11.974;2022-12-29T06:55:17;10.20;51.90
61323;DHT22;47203;48.428;11.974;2022-12-29T06:57:23;10.30;51.90
61323;DHT22;47203;48.428;11.974;2022-12-29T06:59:28;10.30;52.60
61323;DHT22;47203;48.428;11.974;2022-12-29T07:01:34;10.30;52.60
61323;DHT22;47203;48.428;11.974;2022-12-29T07:03:43;10.20;51.90
61323;DHT22;47203;48.428;11.974;2022-12-29T07:05:49;10.40;51.60
61323;DHT22;47203;48.428;11.974;2022-12-29T07:07:56;10.40;52.40
61323;DHT22;47203;48.428;11.974;2022-12-29T07:10:02;10.40;51.50
61323;DHT22;47203;48.428;11.974;2022-12-29T07:12:08;10.40;51.50
61323;DHT22;47203;48.428;11.974;2022-12-29T07:14:14;10.40;52.20
61323;DHT22;47203;48.428;11.974;2022-12-29T07:16:19;10.50;52.20
61323;DHT22;47203;48.428;11.974;2022-12-29T07:18:25;10.50;51.40
61323;DHT22;47203;48.428;11.974;2022-12-29T07:20:33;10.50;51.40
61323;DHT22;47203;48.428;11.974;2022-12-29T07:22:38;10.50;51.20
61323;DHT22;47203;48.428;11.974;2022-12-29T07:24:43;10.60;51.20
61323;DHT22;47203;48.428;11.974;2022-12-29T07:26:49;10.60;51.40
61323;DHT22;47203;48.428;11.974;2022-12-29T07:31:00;10.60;51.30
61323;DHT22;47203;48.428;11.974;2022-12-29T07:33:06;10.60;51.20
61323;DHT22;47203;48.428;11.974;2022-12-29T07:35:11;10.70;52.00
61323;DHT22;47203;48.428;11.974;2022-12-29T07:37:21;10.70;51.40
61323;DHT22;47203;48.428;11.974;2022-12-29T07:39:26;10.80;52.00
61323;DHT22;47203;48.428;11.974;2022-12-29T07:41:32;10.70;51.60
61323;DHT22;47203;48.428;11.974;2022-12-29T07:43:37;10.80;51.40
61323;DHT22;47203;48.428;11.974;2022-12-29T07:46:03;10.80;51.30
61323;DHT22;47203;48.428;11.974;2022-12-29T07:48:31;10.90;51.20
61323;DHT22;47203;48.428;11.974;2022-12-29T07:50:38;10.90;51.20
61323;DHT22;47203;48.428;11.974;2022-12-29T07:52:46;10.90;51.40
61323;DHT22;47203;48.428;11.974;2022-12-29T08:01:12;11.00;52.00
61323;DHT22;47203;48.428;11.974;2022-12-29T08:03:17;11.00;51.50
61323;DHT22;47203;48.428;11.974;2022-12-29T08:43:32;11.00;50.80
61323;DHT22;47203;48.428;11.974;2022-12-29T08:45:41;11.00;50.30
61323;DHT22;47203;48.428;11.974;2022-12-29T08:50:46;11.10;50.90
61323;DHT22;47203;48.428;11.974;2022-12-29T08:52:52;11.30;51.20
61323;DHT22;47203;48.428;11.974;2022-12-29T08:54:57;11.20;50.50
61323;DHT22;47203;48.428;11.974;2022-12-29T08:59:19;11.30;50.60
61323;DHT22;47203;48.428;11.974;2022-12-29T09:01:25;11.30;50.20
61323;DHT22;47203;48.428;11.974;2022-12-29T09:29:07;12.20;50.40
61323;DHT22;47203;48.428;11.974;2022-12-29T09:31:15;12.20;50.30
61323;DHT22;47203;48.428;11.974;2022-12-29T09:33:20;12.20;50.00
61323;DHT22;47203;48.428;11.974;2022-12-29T09:35:25;12.30;50.10
61323;DHT22;47203;48.428;11.974;2022-12-29T09:37:31;12.40;49.70
61323;DHT22;47203;48.428;11.974;2022-12-29T09:39:37;12.40;50.60
61323;DHT22;47203;48.428;11.974;2022-12-29T09:41:47;12.60;50.20
61323;DHT22;47203;48.428;11.974;2022-12-29T09:44:06;12.60;49.70
61323;DHT22;47203;48.428;11.974;2022-12-29T09:46:24;12.70;50.60
61323;DHT22;47203;48.428;11.974;2022-12-29T09:48:34;12.80;50.40
61323;DHT22;47203;48.428;11.974;2022-12-29T09:50:50;13.00;51.10
61323;DHT22;47203;48.428;11.974;2022-12-29T09:53:03;13.10;50.80
61323;DHT22;47203;48.428;11.974;2022-12-29T09:57:27;13.30;51.60
61323;DHT22;47203;48.428;11.974;2022-12-29T09:59:40;13.30;51.10
61323;DHT22;47203;48.428;11.974;2022-12-29T10:01:54;13.40;50.90
61323;DHT22;47203;48.428;11.974;2022-12-29T10:06:19;13.50;50.90
61323;DHT22;47203;48.428;11.974;2022-12-29T10:08:36;13.40;50.00
61323;DHT22;47203;48.428;11.974;2022-12-29T10:10:53;13.50;50.70
61323;DHT22;47203;48.428;11.974;2022-12-29T10:13:10;13.50;50.40
61323;DHT22;47203;48.428;11.974;2022-12-29T10:15:40;13.50;50.20
61323;DHT22;47203;48.428;11.974;2022-12-29T10:18:06;13.40;50.10
61323;DHT22;47203;48.428;11.974;2022-12-29T10:20:28;13.50;50.80
61323;DHT22;47203;48.428;11.974;2022-12-29T10:25:00;13.50;50.90
61323;DHT22;47203;48.428;11.974;2022-12-29T10:32:30;13.60;51.00
61323;DHT22;47203;48.428;11.974;2022-12-29T10:34:47;13.60;50.90
61323;DHT22;47203;48.428;11.974;2022-12-29T10:37:00;13.60;51.70
61323;DHT22;47203;48.428;11.974;2022-12-29T10:39:14;13.60;51.40
61323;DHT22;47203;48.428;11.974;2022-12-29T10:41:32;13.60;51.30
61323;DHT22;47203;48.428;11.974;2022-12-29T10:43:46;13.70;51.00
61323;DHT22;47203;48.428;11.974;2022-12-29T10:45:56;13.70;51.00
61323;DHT22;47203;48.428;11.974;2022-12-29T10:48:08;13.60;51.00
61323;DHT22;47203;48.428;11.974;2022-12-29T10:50:24;13.60;50.40
61323;DHT22;47203;48.428;11.974;2022-12-29T10:52:33;13.60;50.70
61323;DHT22;47203;48.428;11.974;2022-12-29T10:54:45;13.70;50.30
61323;DHT22;47203;48.428;11.974;2022-12-29T10:57:00;13.70;50.20
61323;DHT22;47203;48.428;11.974;2022-12-29T10:59:14;13.60;50.00
61323;DHT22;47203;48.428;11.974;2022-12-29T11:01:26;13.70;48.90
61323;DHT22;47203;48.428;11.974;2022-12-29T11:03:50;15.40;51.00
61323;DHT22;47203;48.428;11.974;2022-12-29T11:06:09;13.70;50.30
61323;DHT22;47203;48.428;11.974;2022-12-29T11:08:21;13.80;50.80
61323;DHT22;47203;48.428;11.974;2022-12-29T11:10:34;13.80;49.70
61323;DHT22;47203;48.428;11.974;2022-12-29T11:12:55;13.90;49.90
61323;DHT22;47203;48.428;11.974;2022-12-29T11:15:15;13.90;50.20
61323;DHT22;47203;48.428;11.974;2022-12-29T11:17:21;14.00;49.30
61323;DHT22;47203;48.428;11.974;2022-12-29T11:19:28;14.10;49.60
61323;DHT22;47203;48.428;11.974;2022-12-29T11:21:44;14.10;50.00
61323;DHT22;47203;48.428;11.974;2022-12-29T11:23:58;14.20;49.00
61323;DHT22;47203;48.428;11.974;2022-12-29T11:26:17;14.30;48.70
61323;DHT22;47203;48.428;11.974;2022-12-29T11:28:31;14.30;48.70
61323;DHT22;47203;48.428;11.974;2022-12-29T11:30:36;14.30;48.70
61323;DHT22;47203;48.428;11.974;2022-12-29T11:32:50;14.40;48.50
61323;DHT22;47203;48.428;11.974;2022-12-29T11:34:57;14.50;47.90
61323;DHT22;47203;48.428;11.974;2022-12-29T11:37:11;14.50;48.70
61323;DHT22;47203;48.428;11.974;2022-12-29T11:39:30;14.50;48.40
61323;DHT22;47203;48.428;11.974;2022-12-29T11:41:38;14.50;48.00
61323;DHT22;47203;48.428;11.974;2022-12-29T11:43:44;14.60;48.70
61323;DHT22;47203;48.428;11.974;2022-12-29T11:45:52;14.60;48.80
61323;DHT22;47203;48.428;11.974;2022-12-29T11:48:00;14.50;48.40
61323;DHT22;47203;48.428;11.974;2022-12-29T11:50:17;14.60;48.50
61323;DHT22;47203;48.428;11.974;2022-12-29T11:52:30;14.50;48.30
61323;DHT22;47203;48.428;11.974;2022-12-29T11:54:42;14.60;48.90
61323;DHT22;47203;48.428;11.974;2022-12-29T11:56:48;14.50;48.60
61323;DHT22;47203;48.428;11.974;2022-12-29T11:58:55;14.50;48.60
61323;DHT22;47203;48.428;11.974;2022-12-29T12:01:02;14.50;48.70
61323;DHT22;47203;48.428;11.974;2022-12-29T12:03:16;14.50;48.80
61323;DHT22;47203;48.428;11.974;2022-12-29T12:05:33;14.50;48.50
61323;DHT22;47203;48.428;11.974;2022-12-29T12:07:47;14.50;49.20
61323;DHT22;47203;48.428;11.974;2022-12-29T12:09:58;14.60;49.00
61323;DHT22;47203;48.428;11.974;2022-12-29T12:12:20;14.60;48.90
61323;DHT22;47203;48.428;11.974;2022-12-29T12:14:35;14.60;49.00
61323;DHT22;47203;48.428;11.974;2022-12-29T12:17:10;14.60;49.10
61323;DHT22;47203;48.428;11.974;2022-12-29T12:19:27;14.70;49.60
61323;DHT22;47203;48.428;11.974;2022-12-29T12:21:39;14.70;49.50
61323;DHT22;47203;48.428;11.974;2022-12-29T12:26:53;14.80;49.40
61323;DHT22;47203;48.428;11.974;2022-12-29T12:29:09;14.90;48.90
61323;DHT22;47203;48.428;11.974;2022-12-29T12:31:26;14.90;48.60
61323;DHT22;47203;48.428;11.974;2022-12-29T12:33:48;14.90;48.70
61323;DHT22;47203;48.428;11.974;2022-12-29T12:36:17;15.00;48.80
61323;DHT22;47203;48.428;11.974;2022-12-29T12:38:45;15.00;48.70
61323;DHT22;47203;48.428;11.974;2022-12-29T12:41:06;15.10;48.50
61323;DHT22;47203;48.428;11.974;2022-12-29T12:43:40;15.20;48.80
61323;DHT22;47203;48.428;11.974;2022-12-29T12:45:58;15.20;48.10
61323;DHT22;47203;48.428;11.974;2022-12-29T12:48:31;15.30;48.00
61323;DHT22;47203;48.428;11.974;2022-12-29T12:50:54;15.40;47.50
61323;DHT22;47203;48.428;11.974;2022-12-29T12:53:24;15.50;47.70
61323;DHT22;47203;48.428;11.974;2022-12-29T12:56:03;15.50;47.00
61323;DHT22;47203;48.428;11.974;2022-12-29T12:58:33;15.60;47.70
61323;DHT22;47203;48.428;11.974;2022-12-29T13:00:53;15.70;47.20
61323;DHT22;47203;48.428;11.974;2022-12-29T13:03:15;15.80;46.90
61323;DHT22;47203;48.428;11.974;2022-12-29T13:05:42;15.80;46.90
61323;DHT22;47203;48.428;11.974;2022-12-29T13:08:24;15.90;46.80
61323;DHT22;47203;48.428;11.974;2022-12-29T13:10:50;15.90;46.80
61323;DHT22;47203;48.428;11.974;2022-12-29T13:13:27;15.90;47.00
61323;DHT22;47203;48.428;11.974;2022-12-29T13:15:47;15.90;46.80
61323;DHT22;47203;48.428;11.974;2022-12-29T13:18:04;16.00;46.70
61323;DHT22;47203;48.428;11.974;2022-12-29T13:20:30;16.00;46.70
61323;DHT22;47203;48.428;11.974;2022-12-29T13:22:48;16.00;46.50
61323;DHT22;47203;48.428;11.974;2022-12-29T13:25:20;15.90;46.70
61323;DHT22;47203;48.428;11.974;2022-12-29T13:27:37;16.00;46.50
61323;DHT22;47203;48.428;11.974;2022-12-29T13:29:59;16.00;46.80
61323;DHT22;47203;48.428;11.974;2022-12-29T13:32:19;16.00;46.40
61323;DHT22;47203;48.428;11.974;2022-12-29T13:34:38;16.00;46.50
61323;DHT22;47203;48.428;11.974;2022-12-29T13:36:53;16.00;46.50
61323;DHT22;47203;48.428;11.974;2022-12-29T13:39:05;15.90;46.60
61323;DHT22;47203;48.428;11.974;2022-12-29T13:41:27;15.90;46.50
61323;DHT22;47203;48.428;11.974;2022-12-29T13:43:38;16.00;46.50
61323;DHT22;47203;48.428;11.974;2022-12-29T13:45:58;15.80;46.40
61323;DHT22;47203;48.428;11.974;2022-12-29T13:48:11;15.90;46.60
61323;DHT22;47203;48.428;11.974;2022-12-29T13:50:25;15.90;47.20
61323;DHT22;47203;48.428;11.974;2022-12-29T13:52:36;15.80;47.20
61323;DHT22;47203;48.428;11.974;2022-12-29T13:55:01;15.80;47.30
61323;DHT22;47203;48.428;11.974;2022-12-29T13:57:35;15.80;46.50
61323;DHT22;47203;48.428;11.974;2022-12-29T13:59:51;15.80;46.40
61323;DHT22;47203;48.428;11.974;2022-12-29T14:02:11;15.80;46.50
61323;DHT22;47203;48.428;11.974;2022-12-29T14:04:27;15.80;46.60
61323;DHT22;47203;48.428;11.974;2022-12-29T14:06:35;18.40;48.30
61323;DHT22;47203;48.428;11.974;2022-12-29T14:08:43;15.70;46.90
61323;DHT22;47203;48.428;11.974;2022-12-29T14:10:50;15.70;47.00
61323;DHT22;47203;48.428;11.974;2022-12-29T14:13:03;15.70;47.10
61323;DHT22;47203;48.428;11.974;2022-12-29T14:15:21;15.70;47.10
61323;DHT22;47203;48.428;11.974;2022-12-29T14:17:30;15.70;47.20
61323;DHT22;47203;48.428;11.974;2022-12-29T14:19:38;15.80;47.40
61323;DHT22;47203;48.428;11.974;2022-12-29T14:21:51;15.70;46.90
61323;DHT22;47203;48.428;11.974;2022-12-29T14:24:27;15.70;47.40
61323;DHT22;47203;48.428;11.974;2022-12-29T14:26:47;15.70;47.40
61323;DHT22;47203;48.428;11.974;2022-12-29T14:28:53;15.80;47.60
61323;DHT22;47203;48.428;11.974;2022-12-29T14:31:37;15.70;47.00
61323;DHT22;47203;48.428;11.974;2022-12-29T14:34:16;15.80;47.10
61323;DHT22;47203;48.428;11.974;2022-12-29T14:36:38;15.80;47.10
61323;DHT22;47203;48.428;11.974;2022-12-29T14:38:45;15.80;47.50
61323;DHT22;47203;48.428;11.974;2022-12-29T14:40:52;15.80;47.40
61323;DHT22;47203;48.428;11.974;2022-12-29T14:43:24;15.80;47.40
61323;DHT22;47203;48.428;11.974;2022-12-29T14:45:32;15.70;47.60
61323;DHT22;47203;48.428;11.974;2022-12-29T14:47:43;15.70;47.70
61323;DHT22;47203;48.428;11.974;2022-12-29T14:49:52;15.70;47.70
61323;DHT22;47203;48.428;11.974;2022-12-29T14:52:07;15.70;47.90
61323;DHT22;47203;48.428;11.974;2022-12-29T14:54:41;15.60;47.90
61323;DHT22;47203;48.428;11.974;2022-12-29T14:56:51;15.60;48.10
61323;DHT22;47203;48.428;11.974;2022-12-29T14:58:58;15.60;48.20
61323;DHT22;47203;48.428;11.974;2022-12-29T15:01:17;15.50;48.20
61323;DHT22;47203;48.428;11.974;2022-12-29T15:03:48;15.50;48.60
61323;DHT22;47203;48.428;11.974;2022-12-29T15:05:57;15.50;48.30
61323;DHT22;47203;48.428;11.974;2022-12-29T15:08:12;15.50;48.40
61323;DHT22;47203;48.428;11.974;2022-12-29T15:10:21;15.50;48.40
61323;DHT22;47203;48.428;11.974;2022-12-29T15:12:36;15.40;48.30
61323;DHT22;47203;48.428;11.974;2022-12-29T15:14:49;15.40;48.30
61323;DHT22;47203;48.428;11.974;2022-12-29T15:16:56;15.40;48.40
61323;DHT22;47203;48.428;11.974;2022-12-29T15:19:21;15.40;48.50
61323;DHT22;47203;48.428;11.974;2022-12-29T15:21:30;15.40;48.40
61323;DHT22;47203;48.428;11.974;2022-12-29T15:23:38;15.40;48.30
61323;DHT22;47203;48.428;11.974;2022-12-29T15:25:52;15.30;49.00
61323;DHT22;47203;48.428;11.974;2022-12-29T15:28:02;15.30;48.30
61323;DHT22;47203;48.428;11.974;2022-12-29T15:30:13;15.30;48.40
61323;DHT22;47203;48.428;11.974;2022-12-29T15:32:21;15.30;48.50
61323;DHT22;47203;48.428;11.974;2022-12-29T15:34:32;15.30;48.50
61323;DHT22;47203;48.428;11.974;2022-12-29T15:36:39;15.30;48.60
61323;DHT22;47203;48.428;11.974;2022-12-29T15:38:45;15.20;48.50
61323;DHT22;47203;48.428;11.974;2022-12-29T15:40:53;15.20;48.70
61323;DHT22;47203;48.428;11.974;2022-12-29T15:43:17;15.20;48.30
61323;DHT22;47203;48.428;11.974;2022-12-29T15:45:40;15.20;48.80
61323;DHT22;47203;48.428;11.974;2022-12-29T15:47:46;15.10;48.70
61323;DHT22;47203;48.428;11.974;2022-12-29T15:50:02;15.10;48.60
61323;DHT22;47203;48.428;11.974;2022-12-29T15:52:10;15.10;48.60
61323;DHT22;47203;48.428;11.974;2022-12-29T15:54:20;15.10;48.60
61323;DHT22;47203;48.428;11.974;2022-12-29T15:56:29;15.00;48.60
61323;DHT22;47203;48.428;11.974;2022-12-29T15:58:40;15.00;48.70
61323;DHT22;47203;48.428;11.974;2022-12-29T16:00:51;15.00;48.70
61323;DHT22;47203;48.428;11.974;2022-12-29T16:03:00;15.00;48.80
61323;DHT22;47203;48.428;11.974;2022-12-29T16:05:15;15.00;48.90
61323;DHT22;47203;48.428;11.974;2022-12-29T16:07:26;15.00;49.10
61323;DHT22;47203;48.428;11.974;2022-12-29T16:09:43;14.90;49.20
61323;DHT22;47203;48.428;11.974;2022-12-29T16:11:51;14.90;49.30
61323;DHT22;47203;48.428;11.974;2022-12-29T16:14:01;14.80;49.30
61323;DHT22;47203;48.428;11.974;2022-12-29T16:16:16;14.90;49.50
61323;DHT22;47203;48.428;11.974;2022-12-29T16:18:28;14.80;49.50